Time+07,TemperatureF,Dew PointF,Humidity,Sea Level PressureIn,VisibilityMPH,Wind Direction,Wind SpeedMPH,Gust SpeedMPH,PrecipitationIn,Events,Conditions,WindDirDegrees,DateUTC
12:00 AM,73.4,66.2,78,29.83,1.9,Calm,Calm,-,N/A,,Mist,0,2012-12-26 17:00:00
12:30 AM,73.4,66.2,78,29.83,1.9,Calm,Calm,-,N/A,,Mist,0,2012-12-26 17:30:00
1:30 AM,73.4,64.4,73,29.80,1.9,Calm,Calm,-,N/A,,Mist,0,2012-12-26 18:30:00
3:00 AM,71.6,64.4,78,29.80,1.9,Calm,Calm,-,N/A,,Mist,0,2012-12-26 20:00:00
3:30 AM,71.6,64.4,78,29.77,1.9,Calm,Calm,-,N/A,,Mist,0,2012-12-26 20:30:00
4:00 AM,71.6,64.4,78,29.77,1.9,Calm,Calm,-,N/A,,Mist,0,2012-12-26 21:00:00
5:00 AM,71.6,64.4,78,29.77,1.9,Calm,Calm,-,N/A,,Mist,0,2012-12-26 22:00:00
5:30 AM,73.4,64.4,73,29.80,1.9,Calm,Calm,-,N/A,,Mist,0,2012-12-26 22:30:00
6:00 AM,73.4,64.4,73,29.80,1.9,Calm,Calm,-,N/A,,Scattered Clouds,0,2012-12-26 23:00:00
6:30 AM,71.6,64.4,78,29.80,1.9,North,3.5,-,N/A,,Mostly Cloudy,350,2012-12-26 23:30:00
7:00 AM,71.6,64.4,78,29.80,1.9,NNW,3.5,-,N/A,,Mostly Cloudy,340,2012-12-27 00:00:00
7:30 AM,75.2,64.4,69,29.83,1.9,NNW,3.5,-,N/A,,Scattered Clouds,340,2012-12-27 00:30:00
8:00 AM,77.0,64.4,65,29.83,1.9,North,3.5,-,N/A,,Scattered Clouds,350,2012-12-27 01:00:00
8:30 AM,78.8,66.2,65,29.86,1.9,North,4.6,-,N/A,,Mostly Cloudy,10,2012-12-27 01:30:00
9:00 AM,82.4,66.2,58,29.86,2.5,North,9.2,-,N/A,,Haze,10,2012-12-27 02:00:00
9:30 AM,86.0,64.4,48,29.86,2.5,North,9.2,-,N/A,,Haze,10,2012-12-27 02:30:00
10:00 AM,86.0,62.6,45,29.86,3.1,NE,6.9,-,N/A,,Haze,50,2012-12-27 03:00:00
10:30 AM,89.6,60.8,38,29.86,3.1,NNE,6.9,-,N/A,,Haze,30,2012-12-27 03:30:00
11:00 AM,89.6,62.6,40,29.86,3.1,ENE,6.9,-,N/A,,Haze,60,2012-12-27 04:00:00
11:30 AM,91.4,60.8,36,29.83,3.1,East,6.9,-,N/A,,Haze,80,2012-12-27 04:30:00
12:00 PM,91.4,59.0,34,29.83,3.1,ESE,4.6,-,N/A,,Haze,120,2012-12-27 05:00:00
12:30 PM,93.2,62.6,36,29.80,3.1,South,6.9,-,N/A,,Haze,180,2012-12-27 05:30:00
1:00 PM,93.2,60.8,34,29.77,3.7,SSW,6.9,-,N/A,,Scattered Clouds,210,2012-12-27 06:00:00
1:30 PM,93.2,60.8,34,29.77,3.7,SW,6.9,-,N/A,,Scattered Clouds,230,2012-12-27 06:30:00
2:00 PM,93.2,62.6,36,29.74,3.7,West,9.2,-,N/A,,Scattered Clouds,260,2012-12-27 07:00:00
2:30 PM,93.2,62.6,36,29.74,3.7,SW,6.9,-,N/A,,Scattered Clouds,230,2012-12-27 07:30:00
3:00 PM,91.4,64.4,41,29.74,3.7,SSW,9.2,-,N/A,,Scattered Clouds,210,2012-12-27 08:00:00
3:30 PM,91.4,66.2,43,29.74,3.1,NNW,6.9,-,N/A,,Haze,340,2012-12-27 08:30:00
4:00 PM,89.6,68.0,49,29.71,2.5,North,5.8,-,N/A,,Haze,350,2012-12-27 09:00:00
4:30 PM,89.6,68.0,49,29.71,2.5,NNW,6.9,-,N/A,,Haze,340,2012-12-27 09:30:00
5:00 PM,89.6,68.0,49,29.74,2.5,North,6.9,-,N/A,,Haze,10,2012-12-27 10:00:00
5:30 PM,86.0,68.0,55,29.74,1.9,North,4.6,-,N/A,,Haze,350,2012-12-27 10:30:00
6:00 PM,84.2,68.0,58,29.74,1.9,North,4.6,-,N/A,,Haze,10,2012-12-27 11:00:00
6:30 PM,82.4,69.8,66,29.74,1.9,North,4.6,-,N/A,,Haze,10,2012-12-27 11:30:00
7:00 PM,82.4,69.8,66,29.77,1.9,ENE,3.5,-,N/A,,Scattered Clouds,60,2012-12-27 12:00:00
7:30 PM,80.6,69.8,70,29.77,1.9,ENE,2.3,-,N/A,,Scattered Clouds,60,2012-12-27 12:30:00
8:00 PM,80.6,69.8,70,29.77,1.9,Calm,Calm,-,N/A,,Scattered Clouds,0,2012-12-27 13:00:00
9:00 PM,80.6,69.8,70,29.77,1.9,Calm,Calm,-,N/A,,Scattered Clouds,0,2012-12-27 14:00:00
9:30 PM,89.6,68.0,49,29.77,1.9,Calm,Calm,-,N/A,,Scattered Clouds,0,2012-12-27 14:30:00
10:30 PM,75.2,71.6,89,29.80,1.2,Calm,Calm,-,N/A,,Scattered Clouds,0,2012-12-27 15:30:00
11:00 PM,75.2,71.6,89,29.77,1.2,Calm,Calm,-,N/A,,Scattered Clouds,0,2012-12-27 16:00:00
11:30 PM,75.2,71.6,89,29.77,1.2,Calm,Calm,-,N/A,,Mist,0,2012-12-27 16:30:00